Tradition — WDF7569 — position and weather

sailwx.info

Track history (hours):
 
Tides and Currents Weather Stations Pressure Air Temp Water Temp Dewpoint Dewpoint Depression Visibility Wind Speed Wind Dir Waves Ship Positions

Tradition

Owner: Nordic Fisheries, Inc., New Bedford, MA. More information available from US FCC via Universal Licensing System and Coast Guard Vessel Documentation Center.

Last reported at 2016-May-12 12:32 UTC. Time now 2016-Aug-28 12:07 UTC.
Position N 42°22' W 070°17'.
Warning: this ship's position is months out of date.

Length 31 m.

Type: Fishing. MMSI: 367485830.

Date/timePositionNaut miles runAvg speedWind from/ knotsBaromVisibWave heightAir tempDewpointWater temp
2016-May-12 12:32N 42°22' W 070°17'1 0.7
2016-May-12 11:33N 42°22' W 070°16'2 2.2
2016-May-12 10:27N 42°21' W 070°19'1 0.7
2016-May-12 09:33N 42°21' W 070°20'2 1.7
2016-May-12 08:33N 42°22' W 070°18'0 0.2
2016-May-12 07:33N 42°22' W 070°18'1 0.7
2016-May-12 06:34N 42°23' W 070°17'1 0.9
2016-May-12 05:33N 42°23' W 070°18'1 1.4
2016-May-12 04:34N 42°22' W 070°17'9 8.8
2016-May-12 03:33N 42°13' W 070°16'6 0.2
2016-May-11 02:06N 42°11' W 070°08'  
2016-May-07 10:25N 42°08' W 070°04'  
Track history (hours):
 
Tides and Currents Weather Stations Pressure Air Temp Water Temp Dewpoint Dewpoint Depression Visibility Wind Speed Wind Dir Waves Ship Positions

Tradition

Owner: Nordic Fisheries, Inc., New Bedford, MA. More information available from US FCC via Universal Licensing System and Coast Guard Vessel Documentation Center.

Last reported at 2016-May-12 12:32 UTC. Time now 2016-Aug-28 12:07 UTC.
Position N 42°22' W 070°17'.
Warning: this ship's position is months out of date.

Length 31 m.

Type: Fishing. MMSI: 367485830.

Date/timePositionNaut miles runAvg speedWind from/ knotsBaromVisibWave heightAir tempDewpointWater temp
2016-May-12 12:32N 42°22' W 070°17'1 0.7
2016-May-12 11:33N 42°22' W 070°16'2 2.2
2016-May-12 10:27N 42°21' W 070°19'1 0.7
2016-May-12 09:33N 42°21' W 070°20'2 1.7
2016-May-12 08:33N 42°22' W 070°18'0 0.2
2016-May-12 07:33N 42°22' W 070°18'1 0.7
2016-May-12 06:34N 42°23' W 070°17'1 0.9
2016-May-12 05:33N 42°23' W 070°18'1 1.4
2016-May-12 04:34N 42°22' W 070°17'9 8.8
2016-May-12 03:33N 42°13' W 070°16'6 0.2
2016-May-11 02:06N 42°11' W 070°08'  
2016-May-07 10:25N 42°08' W 070°04'  

Dump ship's entire track history